Time;durP1;ratioP1;P1;durP2;ratioP2;P2;SDS_P1;SDS_P2;PMS_P1;PMS_P2;Temp;Humidity;BMP_temperature;BMP_pressure;BME280_temperature;BME280_humidity;BME280_pressure;Samples;Min_cycle;Max_cycle;Signal;HPM_P1;HPM_P2
2022/04/03 00:00:22;;;;;;;10.70;9.93;;;2.60;99.90;;;;;;5030376;28;20199;-66
2022/04/03 00:02:48;;;;;;;11.80;10.80;;;2.60;99.90;;;;;;5014140;28;20180;-66
2022/04/03 00:05:14;;;;;;;11.40;10.63;;;2.60;99.90;;;;;;5011451;28;20611;-66
2022/04/03 00:07:40;;;;;;;11.33;10.40;;;2.60;99.90;;;;;;5024842;28;20191;-66
2022/04/03 00:10:06;;;;;;;11.43;10.77;;;2.60;99.90;;;;;;5028767;28;20543;-67
2022/04/03 00:12:32;;;;;;;11.70;11.00;;;2.60;99.90;;;;;;5016527;28;20180;-67
2022/04/03 00:14:57;;;;;;;11.63;10.93;;;2.60;99.90;;;;;;5010593;28;20513;-65
2022/04/03 00:17:23;;;;;;;11.93;11.13;;;2.70;99.90;;;;;;5020603;28;20672;-67
2022/04/03 00:19:49;;;;;;;12.00;10.87;;;2.70;99.90;;;;;;5030811;28;20178;-66
2022/04/03 00:22:15;;;;;;;11.67;10.87;;;2.70;99.90;;;;;;5021137;28;20176;-67
2022/04/03 00:24:41;;;;;;;11.67;10.77;;;2.70;99.90;;;;;;5008036;28;20204;-66
2022/04/03 00:27:07;;;;;;;12.40;11.60;;;2.70;99.90;;;;;;5017448;28;20649;-66
2022/04/03 00:29:33;;;;;;;12.27;11.27;;;2.70;99.90;;;;;;5031083;28;20645;-66
2022/04/03 00:32:00;;;;;;;12.30;11.50;;;2.70;99.90;;;;;;5025004;28;20184;-66
2022/04/03 00:34:26;;;;;;;12.00;11.30;;;2.80;99.90;;;;;;5010527;28;20176;-67
2022/04/03 00:36:54;;;;;;;11.60;11.00;;;2.80;99.90;;;;;;5014630;28;20167;-66
2022/04/03 00:39:20;;;;;;;11.97;11.20;;;2.70;99.90;;;;;;5031477;28;20540;-66
2022/04/03 00:41:46;;;;;;;10.40;9.90;;;2.70;99.90;;;;;;5027829;28;20180;-66
2022/04/03 00:44:12;;;;;;;11.30;10.70;;;2.70;99.90;;;;;;5009077;28;20180;-66
2022/04/03 00:46:40;;;;;;;11.17;10.37;;;2.70;99.90;;;;;;5011070;28;20211;-66
2022/04/03 00:49:06;;;;;;;10.90;10.30;;;2.70;99.90;;;;;;5030237;28;20172;-67
2022/04/03 00:51:33;;;;;;;11.67;10.83;;;2.70;99.90;;;;;;5030316;28;20229;-66
2022/04/03 00:53:59;;;;;;;11.97;11.20;;;2.70;99.90;;;;;;5009278;28;20720;-66
2022/04/03 00:56:25;;;;;;;13.13;12.43;;;2.70;99.90;;;;;;5011112;28;20188;-66
2022/04/03 00:58:51;;;;;;;12.40;11.60;;;2.70;99.90;;;;;;5008627;28;20203;-66
2022/04/03 01:01:17;;;;;;;12.73;12.10;;;2.70;99.90;;;;;;5010141;28;20246;-66
2022/04/03 01:03:43;;;;;;;15.43;14.43;;;2.70;99.90;;;;;;5026368;28;20183;-67
2022/04/03 01:06:08;;;;;;;14.03;13.20;;;2.70;99.90;;;;;;5030818;28;20218;-67
2022/04/03 01:08:34;;;;;;;12.20;11.40;;;2.70;99.90;;;;;;5015082;28;20177;-66
2022/04/03 01:11:00;;;;;;;10.23;9.33;;;2.60;99.90;;;;;;5011455;28;20172;-67
2022/04/03 01:13:25;;;;;;;9.67;8.87;;;2.60;99.90;;;;;;5023773;28;20172;-65
2022/04/03 01:15:56;;;;;;;10.17;9.47;;;2.60;99.90;;;;;;5041749;28;20692;-66
2022/04/03 01:18:23;;;;;;;9.20;8.40;;;2.50;99.90;;;;;;5033038;28;20410;-66
2022/04/03 01:20:49;;;;;;;9.83;9.20;;;2.50;99.90;;;;;;5023431;28;20184;-66
2022/04/03 01:23:15;;;;;;;9.83;9.00;;;2.40;99.90;;;;;;5022451;28;20263;-66
2022/04/03 01:25:41;;;;;;;9.87;9.07;;;2.40;99.90;;;;;;5026276;28;20354;-66
2022/04/03 01:28:08;;;;;;;9.10;8.60;;;2.40;99.90;;;;;;5014265;28;20312;-66
2022/04/03 01:30:34;;;;;;;9.40;8.77;;;2.50;99.90;;;;;;5031069;28;20229;-66
2022/04/03 01:33:00;;;;;;;9.97;9.30;;;2.50;99.90;;;;;;5034645;28;20361;-66
2022/04/03 01:35:25;;;;;;;9.83;9.17;;;2.50;99.90;;;;;;5029338;28;20211;-67
2022/04/03 01:37:51;;;;;;;9.50;8.90;;;2.40;99.90;;;;;;5032118;28;20310;-67
2022/04/03 01:40:18;;;;;;;10.20;9.27;;;2.40;99.90;;;;;;5032620;28;20180;-67
2022/04/03 01:42:43;;;;;;;9.70;9.10;;;2.40;99.90;;;;;;5032638;28;20707;-66
2022/04/03 01:45:10;;;;;;;9.90;9.17;;;2.40;99.90;;;;;;5033015;28;20282;-66
2022/04/03 01:47:36;;;;;;;10.10;9.47;;;2.40;99.90;;;;;;5021257;28;20220;-66
2022/04/03 01:50:06;;;;;;;9.70;9.00;;;2.30;99.90;;;;;;5032975;28;20179;-66
2022/04/03 01:52:32;;;;;;;11.47;10.47;;;2.30;99.90;;;;;;5034333;28;20517;-65
2022/04/03 01:54:59;;;;;;;9.97;9.37;;;2.30;99.90;;;;;;5031791;28;20272;-66
2022/04/03 01:57:25;;;;;;;9.73;9.03;;;2.30;99.90;;;;;;5031605;28;20599;-66
2022/04/03 01:59:51;;;;;;;10.20;9.40;;;2.20;99.90;;;;;;5013986;28;20172;-67
2022/04/03 02:02:17;;;;;;;9.57;8.97;;;2.20;99.90;;;;;;5028027;28;20225;-67
2022/04/03 02:04:42;;;;;;;10.37;8.90;;;2.30;99.90;;;;;;5033357;28;20195;-67
2022/04/03 02:07:08;;;;;;;9.63;8.83;;;2.20;99.90;;;;;;5021414;28;20187;-66
2022/04/03 02:09:34;;;;;;;10.47;9.67;;;2.20;99.90;;;;;;5013964;28;20230;-67
2022/04/03 02:12:00;;;;;;;9.50;8.83;;;2.10;99.90;;;;;;5015047;28;20180;-66
2022/04/03 02:14:26;;;;;;;10.17;9.30;;;2.10;99.90;;;;;;5013609;28;20230;-66
2022/04/03 02:16:55;;;;;;;10.53;9.83;;;2.00;99.90;;;;;;5021432;28;20190;-67
2022/04/03 02:19:21;;;;;;;10.47;9.67;;;1.90;99.90;;;;;;5033072;28;20178;-67
2022/04/03 02:21:47;;;;;;;10.97;10.07;;;1.80;99.90;;;;;;5026451;28;20181;-66
2022/04/03 02:24:12;;;;;;;10.07;9.30;;;1.80;99.90;;;;;;5013835;28;20176;-67
2022/04/03 02:26:38;;;;;;;11.13;10.03;;;1.80;99.90;;;;;;5016982;28;20218;-67
2022/04/03 02:29:04;;;;;;;10.57;9.87;;;1.80;99.90;;;;;;5033631;28;20163;-67
2022/04/03 02:31:30;;;;;;;10.23;9.53;;;1.70;99.90;;;;;;5029679;28;20638;-66
2022/04/03 02:33:56;;;;;;;10.67;9.87;;;1.70;99.90;;;;;;5012400;28;20168;-67
2022/04/03 02:36:21;;;;;;;10.50;9.80;;;1.70;99.90;;;;;;5013557;28;20208;-68
2022/04/03 02:38:47;;;;;;;10.53;9.70;;;1.60;99.90;;;;;;5033089;28;20189;-68
2022/04/03 02:41:12;;;;;;;10.93;9.93;;;1.50;99.90;;;;;;5031478;28;20547;-67
2022/04/03 02:43:38;;;;;;;10.73;10.03;;;1.50;99.90;;;;;;5032759;28;20637;-67
2022/04/03 02:46:04;;;;;;;11.13;10.33;;;1.40;99.90;;;;;;5032222;28;20207;-66
2022/04/03 02:48:30;;;;;;;12.27;11.37;;;1.40;99.90;;;;;;5013140;28;20203;-66
2022/04/03 02:50:56;;;;;;;13.17;12.23;;;1.40;99.90;;;;;;5012667;28;20255;-68
2022/04/03 02:53:22;;;;;;;12.77;11.53;;;1.40;99.90;;;;;;5030733;28;20175;-66
2022/04/03 02:55:48;;;;;;;12.07;11.17;;;1.30;99.90;;;;;;5032541;28;20202;-66
2022/04/03 02:58:14;;;;;;;11.63;10.63;;;1.30;99.90;;;;;;5016272;28;20176;-67
2022/04/03 03:00:39;;;;;;;12.10;11.10;;;1.30;99.90;;;;;;5013039;28;20187;-66
2022/04/03 03:03:06;;;;;;;11.77;10.53;;;1.20;99.90;;;;;;5026801;28;20172;-67
2022/04/03 03:05:32;;;;;;;11.93;11.10;;;1.20;99.90;;;;;;5030525;28;20302;-67
2022/04/03 03:07:58;;;;;;;12.43;11.43;;;1.10;99.90;;;;;;5014283;28;20188;-67
2022/04/03 03:10:24;;;;;;;11.87;11.10;;;1.10;99.90;;;;;;5011440;28;20172;-67
2022/04/03 03:12:50;;;;;;;11.57;10.87;;;1.10;99.90;;;;;;5027556;28;20198;-67
2022/04/03 03:15:17;;;;;;;12.10;11.20;;;1.10;99.90;;;;;;5030528;28;20687;-67
2022/04/03 03:17:43;;;;;;;11.57;10.77;;;1.10;99.90;;;;;;5017369;28;20543;-66
2022/04/03 03:20:09;;;;;;;11.47;10.67;;;1.10;99.90;;;;;;5011587;28;20183;-67
2022/04/03 03:22:35;;;;;;;12.60;11.70;;;1.10;99.90;;;;;;5023965;28;20179;-67
2022/04/03 03:25:06;;;;;;;12.40;11.50;;;1.10;99.90;;;;;;5032037;28;20210;-66
2022/04/03 03:27:32;;;;;;;11.83;10.93;;;1.10;99.90;;;;;;5020578;28;20172;-66
2022/04/03 03:29:58;;;;;;;11.63;10.73;;;1.10;99.90;;;;;;5011532;28;20267;-67
2022/04/03 03:32:24;;;;;;;11.80;10.80;;;1.10;99.90;;;;;;5013545;28;20251;-67
2022/04/03 03:34:54;;;;;;;11.80;10.80;;;1.00;99.90;;;;;;5011953;28;20210;-66
2022/04/03 03:37:20;;;;;;;11.83;11.03;;;1.00;99.90;;;;;;5018957;28;20182;-66
2022/04/03 03:39:47;;;;;;;11.50;10.70;;;1.00;99.90;;;;;;5030615;28;20178;-67
2022/04/03 03:42:13;;;;;;;11.73;10.60;;;1.00;99.90;;;;;;5026104;28;20172;-66
2022/04/03 03:44:39;;;;;;;11.50;10.67;;;0.90;99.90;;;;;;5010444;28;20596;-65
2022/04/03 03:47:05;;;;;;;11.50;10.70;;;0.90;99.90;;;;;;5014865;28;20176;-66
2022/04/03 03:49:31;;;;;;;11.43;10.57;;;0.90;99.90;;;;;;5029531;28;20183;-66
2022/04/03 03:51:57;;;;;;;11.70;10.80;;;0.80;99.90;;;;;;5027202;28;20182;-66
2022/04/03 03:54:22;;;;;;;10.87;10.07;;;0.80;99.90;;;;;;5010752;28;20613;-65
2022/04/03 03:56:48;;;;;;;11.80;10.90;;;0.80;99.90;;;;;;5011410;28;20263;-66
2022/04/03 03:59:14;;;;;;;11.77;10.77;;;0.80;99.90;;;;;;5031906;28;20175;-66
2022/04/03 04:01:40;;;;;;;11.43;10.63;;;0.80;99.90;;;;;;5017512;28;20192;-67
2022/04/03 04:04:06;;;;;;;12.60;11.60;;;0.80;99.90;;;;;;5011892;28;20172;-67
2022/04/03 04:06:32;;;;;;;11.53;10.57;;;0.70;99.90;;;;;;5022170;28;20215;-66
2022/04/03 04:08:58;;;;;;;12.03;11.07;;;0.70;99.90;;;;;;5030727;28;20245;-66
2022/04/03 04:11:24;;;;;;;11.73;10.83;;;0.70;99.90;;;;;;5021474;28;20741;-66
2022/04/03 04:13:50;;;;;;;12.30;11.40;;;0.70;99.90;;;;;;5010640;28;20176;-67
2022/04/03 04:16:15;;;;;;;12.20;11.30;;;0.70;99.90;;;;;;5018494;28;20231;-67
2022/04/03 04:18:42;;;;;;;12.30;11.40;;;0.70;99.90;;;;;;5031464;28;20175;-67
2022/04/03 04:21:10;;;;;;;11.63;10.83;;;0.70;99.90;;;;;;5025013;28;20619;-67
2022/04/03 04:23:35;;;;;;;11.73;10.83;;;0.80;99.90;;;;;;5019452;28;20689;-67
2022/04/03 04:26:01;;;;;;;11.43;10.40;;;0.70;99.90;;;;;;5029814;28;20211;-67
2022/04/03 04:28:27;;;;;;;11.57;10.73;;;0.70;99.90;;;;;;5036631;28;20168;-66
2022/04/03 04:30:54;;;;;;;11.13;10.23;;;0.70;99.90;;;;;;5030050;28;20190;-66
2022/04/03 04:33:20;;;;;;;11.10;10.30;;;0.70;99.90;;;;;;5031508;28;20213;-66
2022/04/03 04:35:45;;;;;;;11.30;10.60;;;0.60;99.90;;;;;;5021705;28;20207;-66
2022/04/03 04:38:11;;;;;;;11.30;10.37;;;0.60;99.90;;;;;;5010476;28;20542;-66
2022/04/03 04:40:36;;;;;;;11.17;10.20;;;0.70;99.90;;;;;;5015890;28;20179;-66
2022/04/03 04:43:02;;;;;;;11.53;10.50;;;0.60;99.90;;;;;;5031155;28;20171;-66
2022/04/03 04:45:28;;;;;;;10.70;9.70;;;0.60;99.90;;;;;;5025759;28;20338;-67
2022/04/03 04:47:59;;;;;;;11.83;10.73;;;0.60;99.90;;;;;;5011522;28;20168;-66
2022/04/03 04:50:26;;;;;;;11.10;10.20;;;0.60;99.90;;;;;;5014391;28;20720;-67
2022/04/03 04:52:52;;;;;;;10.80;9.90;;;0.50;99.90;;;;;;5020100;28;20176;-67
2022/04/03 04:55:19;;;;;;;11.63;10.57;;;0.50;99.90;;;;;;5010817;28;20207;-66
2022/04/03 04:57:58;;;;;;;10.57;9.87;;;0.40;99.90;;;;;;5030602;28;20313;-66
2022/04/03 05:00:26;;;;;;;11.80;10.77;;;0.40;99.90;;;;;;5033370;28;20201;-68
2022/04/03 05:02:51;;;;;;;10.37;9.67;;;0.30;99.90;;;;;;5015423;28;20188;-67
2022/04/03 05:05:19;;;;;;;11.20;10.20;;;0.30;99.90;;;;;;5014893;28;20273;-67
2022/04/03 05:07:45;;;;;;;10.97;10.07;;;0.30;99.90;;;;;;5034663;28;20194;-67
2022/04/03 05:10:14;;;;;;;11.17;10.03;;;0.20;99.90;;;;;;5033287;28;20229;-68
2022/04/03 05:12:40;;;;;;;10.70;9.93;;;0.20;99.90;;;;;;5015485;28;20275;-67
2022/04/03 05:15:08;;;;;;;10.90;10.10;;;0.20;99.90;;;;;;5014725;28;20228;-67
2022/04/03 05:17:34;;;;;;;11.73;10.70;;;0.10;99.90;;;;;;5032369;28;20183;-67
2022/04/03 05:20:00;;;;;;;10.43;9.73;;;0.10;99.90;;;;;;5034324;28;20550;-67
2022/04/03 05:22:26;;;;;;;11.57;10.50;;;0.10;99.90;;;;;;5016895;28;20188;-67
2022/04/03 05:24:53;;;;;;;10.70;10.00;;;0.10;99.90;;;;;;5014340;28;20192;-67
2022/04/03 05:27:19;;;;;;;10.70;9.90;;;0.10;99.90;;;;;;5029156;28;20333;-67
2022/04/03 05:29:45;;;;;;;11.23;10.43;;;0.10;99.90;;;;;;5033206;28;20688;-67
2022/04/03 05:32:11;;;;;;;10.97;10.10;;;0.10;99.90;;;;;;5021221;28;20324;-66
2022/04/03 05:34:37;;;;;;;11.37;10.57;;;0.10;99.90;;;;;;5013955;28;20544;-67
2022/04/03 05:37:03;;;;;;;11.33;10.57;;;0.10;99.90;;;;;;5024476;28;20175;-67
2022/04/03 05:39:28;;;;;;;11.53;10.70;;;0.10;99.90;;;;;;5034191;28;20174;-65
2022/04/03 05:41:55;;;;;;;11.70;10.70;;;0.10;99.90;;;;;;5020899;28;20532;-66
2022/04/03 05:44:22;;;;;;;11.73;10.77;;;0.10;99.90;;;;;;5014106;28;20171;-68
2022/04/03 05:46:48;;;;;;;12.63;11.60;;;0.10;99.90;;;;;;5023917;28;20322;-66
2022/04/03 05:49:14;;;;;;;11.93;11.07;;;0.10;99.90;;;;;;5032626;28;20168;-66
2022/04/03 05:51:40;;;;;;;12.33;11.33;;;0.20;99.90;;;;;;5026800;28;20176;-66
2022/04/03 05:54:06;;;;;;;12.70;11.80;;;0.20;99.90;;;;;;5026311;28;20668;-66
2022/04/03 05:56:31;;;;;;;12.10;11.20;;;0.30;99.90;;;;;;5033331;28;20211;-67
2022/04/03 05:58:57;;;;;;;12.50;11.40;;;0.30;99.90;;;;;;5032736;28;20187;-66
2022/04/03 06:01:23;;;;;;;12.67;11.77;;;0.30;99.90;;;;;;5033610;28;20178;-67
2022/04/03 06:03:50;;;;;;;12.23;11.13;;;0.30;99.90;;;;;;5016615;28;20192;-67
2022/04/03 06:06:16;;;;;;;15.27;10.53;;;0.30;99.90;;;;;;5011841;28;20216;-66
2022/04/03 06:08:41;;;;;;;12.50;11.33;;;0.40;99.90;;;;;;5028025;28;20739;-66
2022/04/03 06:11:07;;;;;;;12.53;11.53;;;0.40;99.90;;;;;;5030832;28;20179;-67
2022/04/03 06:13:33;;;;;;;12.47;11.57;;;0.50;99.90;;;;;;5032712;28;20183;-67
2022/04/03 06:15:58;;;;;;;12.50;11.40;;;0.50;99.90;;;;;;5031710;28;20195;-67
2022/04/03 06:18:24;;;;;;;11.63;10.80;;;0.50;99.90;;;;;;5021064;28;20187;-66
2022/04/03 06:20:50;;;;;;;11.80;11.00;;;0.50;99.90;;;;;;5012560;28;20206;-67
2022/04/03 06:23:20;;;;;;;11.33;10.57;;;0.50;99.90;;;;;;5023037;28;20241;-66
2022/04/03 06:25:49;;;;;;;11.93;10.90;;;0.50;99.90;;;;;;5031205;28;20265;-66
2022/04/03 06:28:15;;;;;;;12.10;10.90;;;0.50;99.90;;;;;;5023596;28;20212;-67
2022/04/03 06:30:40;;;;;;;12.37;11.30;;;0.60;99.90;;;;;;5011726;28;20317;-66
2022/04/03 06:33:07;;;;;;;10.73;9.93;;;0.60;99.90;;;;;;5012821;28;20172;-66
2022/04/03 06:35:33;;;;;;;10.57;9.83;;;0.60;99.90;;;;;;5012375;28;20236;-67
2022/04/03 06:37:58;;;;;;;11.53;10.50;;;0.70;99.90;;;;;;5020377;28;20179;-66
2022/04/03 06:40:24;;;;;;;11.53;10.63;;;0.80;99.90;;;;;;5031539;28;20284;-67
2022/04/03 06:42:51;;;;;;;11.93;11.07;;;0.90;99.90;;;;;;5024808;28;20184;-67
2022/04/03 06:45:17;;;;;;;12.50;11.63;;;1.10;99.90;;;;;;5011596;28;20723;-66
2022/04/03 06:47:43;;;;;;;12.50;11.47;;;1.20;99.90;;;;;;5017055;28;20187;-67
2022/04/03 06:50:10;;;;;;;14.83;13.90;;;1.30;99.90;;;;;;5031762;28;20258;-66
2022/04/03 06:52:36;;;;;;;12.77;11.87;;;1.30;99.90;;;;;;5026945;28;20242;-67
2022/04/03 06:55:03;;;;;;;11.30;10.27;;;1.40;99.90;;;;;;5012596;28;20279;-67
2022/04/03 06:57:28;;;;;;;10.90;10.00;;;1.60;99.90;;;;;;5015791;28;20190;-67
2022/04/03 06:59:54;;;;;;;9.93;9.23;;;1.80;99.90;;;;;;5027066;28;20255;-67
2022/04/03 07:02:20;;;;;;;12.50;11.50;;;2.10;99.90;;;;;;5032533;28;20516;-65
2022/04/03 07:04:45;;;;;;;11.60;10.70;;;2.60;99.90;;;;;;5030685;28;20202;-66
2022/04/03 07:07:19;;;;;;;10.23;8.30;;;3.20;99.90;;;;;;5012677;28;20191;-66
2022/04/03 07:09:45;;;;;;;10.83;9.40;;;3.80;99.90;;;;;;5012594;28;20168;-67
2022/04/03 07:12:11;;;;;;;8.73;8.03;;;4.40;99.90;;;;;;5030258;28;20209;-67
2022/04/03 07:14:37;;;;;;;8.67;8.07;;;4.70;99.90;;;;;;5031833;28;20170;-65
2022/04/03 07:17:03;;;;;;;9.60;8.70;;;5.40;99.90;;;;;;5014152;28;20172;-66
2022/04/03 07:19:28;;;;;;;9.40;8.57;;;6.00;99.90;;;;;;5009971;28;20179;-66
2022/04/03 07:21:56;;;;;;;9.10;8.40;;;6.70;99.90;;;;;;5028405;28;20175;-66
2022/04/03 07:24:22;;;;;;;8.07;7.37;;;7.50;99.90;;;;;;5044013;28;20186;-67
2022/04/03 07:26:47;;;;;;;8.40;7.63;;;8.20;99.90;;;;;;5024915;28;20223;-68
2022/04/03 07:29:13;;;;;;;8.53;7.73;;;8.80;99.90;;;;;;5016246;28;20168;-66
2022/04/03 07:31:39;;;;;;;10.00;7.97;;;9.30;99.90;;;;;;5032474;28;20182;-66
2022/04/03 07:34:04;;;;;;;7.23;6.60;;;9.80;99.90;;;;;;5014812;28;20180;-66
2022/04/03 07:36:30;;;;;;;7.73;7.13;;;10.10;99.90;;;;;;5012260;28;20253;-67
2022/04/03 07:38:56;;;;;;;8.23;7.50;;;10.30;99.90;;;;;;5028055;28;20186;-67
2022/04/03 07:41:22;;;;;;;8.17;7.37;;;10.10;99.90;;;;;;5032107;28;20179;-66
2022/04/03 07:43:48;;;;;;;16.20;14.50;;;10.10;99.90;;;;;;5017554;28;20700;-67
2022/04/03 07:46:16;;;;;;;8.37;7.60;;;10.10;99.90;;;;;;5011220;28;20212;-67
2022/04/03 07:48:42;;;;;;;8.40;7.80;;;10.40;99.90;;;;;;5024014;28;20545;-67
2022/04/03 07:51:08;;;;;;;7.87;7.10;;;10.80;99.90;;;;;;5030264;28;20207;-67
2022/04/03 07:53:34;;;;;;;7.30;6.70;;;11.10;99.90;;;;;;5029205;28;20207;-67
2022/04/03 07:55:59;;;;;;;10.70;7.37;;;11.30;99.90;;;;;;5027585;28;20673;-67
2022/04/03 07:58:25;;;;;;;8.47;7.20;;;11.50;99.90;;;;;;5010555;28;20313;-67
2022/04/03 08:00:51;;;;;;;7.53;6.60;;;11.50;99.90;;;;;;5012204;28;20172;-67
2022/04/03 08:03:16;;;;;;;7.83;7.27;;;11.40;99.90;;;;;;5026039;28;20267;-67
2022/04/03 08:05:42;;;;;;;8.23;7.53;;;11.80;99.90;;;;;;5031265;28;20214;-67
2022/04/03 08:08:08;;;;;;;8.73;7.83;;;12.00;99.90;;;;;;5013062;28;20683;-67
2022/04/03 08:10:34;;;;;;;8.77;7.70;;;12.10;99.90;;;;;;5016183;28;20198;-67
2022/04/03 08:13:00;;;;;;;8.43;7.83;;;12.40;99.90;;;;;;5028977;28;20171;-67
2022/04/03 08:15:25;;;;;;;7.77;7.10;;;11.60;99.90;;;;;;5029794;28;20206;-66
2022/04/03 08:17:51;;;;;;;9.50;8.40;;;11.90;99.90;;;;;;5030505;28;20661;-68
2022/04/03 08:20:18;;;;;;;7.83;7.23;;;11.90;99.90;;;;;;5031492;28;20199;-68
2022/04/03 08:22:45;;;;;;;8.40;7.00;;;11.90;99.90;;;;;;5017403;28;20176;-66
2022/04/03 08:25:12;;;;;;;7.83;7.10;;;12.00;99.90;;;;;;5011061;28;20200;-66
2022/04/03 08:27:48;;;;;;;7.07;6.33;;;12.60;99.90;;;;;;5021085;28;20175;-66
2022/04/03 08:30:19;;;;;;;6.73;6.17;;;13.20;99.80;;;;;;5029689;28;20176;-66
2022/04/03 08:32:46;;;;;;;10.07;7.50;;;13.10;99.90;;;;;;5019206;28;20720;-66
2022/04/03 08:35:12;;;;;;;6.30;5.80;;;13.40;99.90;;;;;;5014979;28;20207;-66
2022/04/03 08:37:39;;;;;;;7.37;6.70;;;13.80;96.80;;;;;;5015837;28;20246;-67
2022/04/03 08:40:06;;;;;;;6.20;5.73;;;13.40;97.70;;;;;;5015577;28;20585;-66
2022/04/03 08:42:33;;;;;;;7.03;6.33;;;13.10;96.90;;;;;;5024617;28;20184;-68
2022/04/03 08:44:59;;;;;;;9.07;6.97;;;12.70;97.00;;;;;;5027800;28;20287;-66
2022/04/03 08:47:26;;;;;;;11.77;8.57;;;12.60;96.40;;;;;;5014094;28;20263;-68
2022/04/03 08:49:57;;;;;;;9.47;7.43;;;12.40;98.90;;;;;;5019697;28;20187;-67
2022/04/03 08:52:23;;;;;;;8.27;7.47;;;12.40;96.60;;;;;;5034369;28;20164;-67
2022/04/03 08:54:49;;;;;;;9.63;8.10;;;12.20;97.70;;;;;;5028681;28;20203;-67
2022/04/03 08:57:15;;;;;;;8.70;7.60;;;12.00;97.20;;;;;;5015120;28;20533;-67
2022/04/03 08:59:41;;;;;;;7.57;6.97;;;12.10;95.90;;;;;;5017018;28;20290;-66
2022/04/03 09:02:07;;;;;;;8.03;7.33;;;11.90;95.10;;;;;;5034837;28;20168;-67
2022/04/03 09:04:33;;;;;;;7.73;6.97;;;11.70;95.50;;;;;;5029530;28;20186;-67
2022/04/03 09:07:00;;;;;;;7.03;6.53;;;11.90;96.20;;;;;;5013272;28;20249;-66
2022/04/03 09:09:27;;;;;;;8.17;6.20;;;12.20;95.70;;;;;;5013050;28;20169;-67
2022/04/03 09:12:09;;;;;;;6.83;6.23;;;12.10;95.80;;;;;;5014861;28;20164;-68
2022/04/03 09:14:35;;;;;;;7.60;6.90;;;12.30;94.70;;;;;;5015542;28;20168;-67
2022/04/03 09:17:01;;;;;;;7.13;6.63;;;12.60;96.40;;;;;;5034525;28;20666;-67
2022/04/03 09:19:34;;;;;;;6.57;6.07;;;12.70;93.40;;;;;;5033194;28;20182;-66
2022/04/03 09:22:01;;;;;;;6.87;6.20;;;12.80;94.50;;;;;;5013471;28;20258;-67
2022/04/03 09:24:28;;;;;;;6.77;6.20;;;12.60;93.80;;;;;;5014692;28;20820;-67
2022/04/03 09:27:01;;;;;;;7.47;6.90;;;11.90;93.40;;;;;;5032467;28;20195;-67
2022/04/03 09:29:27;;;;;;;9.90;7.40;;;11.30;93.70;;;;;;5032610;28;20241;-66
2022/04/03 09:32:03;;;;;;;6.87;6.40;;;10.90;93.50;;;;;;5014991;28;20177;-67
2022/04/03 09:34:29;;;;;;;6.63;6.13;;;10.80;92.60;;;;;;5013781;28;20606;-67
2022/04/03 09:36:56;;;;;;;6.77;6.27;;;10.80;92.40;;;;;;5071566;22;20226;-65
2022/04/03 09:39:27;;;;;;;7.60;6.90;;;10.60;92.80;;;;;;5053344;28;20242;-64
2022/04/03 09:41:56;;;;;;;7.00;6.50;;;10.50;91.90;;;;;;5050888;28;20178;-64
2022/04/03 09:44:38;;;;;;;6.80;6.27;;;10.00;90.40;;;;;;5031548;28;20610;-65
2022/04/03 09:47:17;;;;;;;7.40;6.90;;;9.60;91.90;;;;;;5031949;28;20261;-64
2022/04/03 09:49:51;;;;;;;7.37;6.77;;;9.50;93.00;;;;;;5033676;28;20170;-65
2022/04/03 09:52:39;;;;;;;7.97;7.50;;;9.30;93.60;;;;;;5033502;28;20655;-66
2022/04/03 09:55:16;;;;;;;8.40;7.70;;;9.20;93.20;;;;;;5033181;28;20257;-67
2022/04/03 09:57:43;;;;;;;7.60;7.00;;;9.90;94.30;;;;;;5020901;28;20652;-66
2022/04/03 10:00:09;;;;;;;6.10;5.70;;;10.60;92.60;;;;;;5012071;28;20230;-67
2022/04/03 10:02:35;;;;;;;6.97;6.37;;;10.90;91.40;;;;;;5018949;28;20660;-64
2022/04/03 10:05:01;;;;;;;7.07;6.30;;;11.30;92.50;;;;;;5032957;28;20171;-66
2022/04/03 10:07:30;;;;;;;6.70;6.20;;;11.40;92.20;;;;;;5032088;28;20179;-66
2022/04/03 10:09:56;;;;;;;7.30;6.80;;;11.30;91.30;;;;;;5033091;28;20695;-66
2022/04/03 10:12:23;;;;;;;7.20;6.50;;;11.80;92.40;;;;;;5032664;28;20538;-66
2022/04/03 10:14:50;;;;;;;6.23;5.80;;;11.90;90.90;;;;;;5032917;28;20297;-66
2022/04/03 10:17:19;;;;;;;5.87;5.37;;;12.20;88.70;;;;;;5031467;28;20578;-66
2022/04/03 10:19:45;;;;;;;6.00;5.60;;;12.70;90.10;;;;;;5032008;28;20194;-66
2022/04/03 10:22:19;;;;;;;5.90;5.50;;;13.10;90.80;;;;;;5032935;28;20668;-66
2022/04/03 10:24:51;;;;;;;6.73;6.23;;;13.20;87.50;;;;;;5032711;28;20171;-66
2022/04/03 10:27:23;;;;;;;6.97;6.57;;;12.70;84.50;;;;;;5032424;28;20278;-66
2022/04/03 10:29:50;;;;;;;6.47;6.07;;;12.10;84.30;;;;;;5032791;28;20176;-66
2022/04/03 10:32:24;;;;;;;6.57;6.17;;;12.00;90.00;;;;;;5031102;28;20171;-64
2022/04/03 10:34:54;;;;;;;5.90;5.60;;;11.80;85.90;;;;;;5032584;28;20652;-66
2022/04/03 10:37:25;;;;;;;6.00;5.70;;;11.40;86.40;;;;;;5032727;28;20210;-65
2022/04/03 10:39:55;;;;;;;6.93;6.50;;;11.10;87.80;;;;;;5032803;28;20226;-66
2022/04/03 10:42:28;;;;;;;6.80;6.30;;;10.90;89.60;;;;;;5032323;28;20175;-66
2022/04/03 10:45:11;;;;;;;6.20;5.70;;;11.00;90.80;;;;;;5031464;28;20250;-66
2022/04/03 10:47:41;;;;;;;6.60;6.20;;;11.10;90.20;;;;;;5010803;28;20184;-66
2022/04/03 10:50:09;;;;;;;6.37;6.07;;;11.20;89.20;;;;;;5028225;28;20167;-65
2022/04/03 10:52:37;;;;;;;6.33;5.90;;;11.40;91.50;;;;;;5032491;28;20267;-66
2022/04/03 10:55:23;;;;;;;6.53;6.03;;;11.70;90.20;;;;;;5032156;28;20851;-66
2022/04/03 10:57:50;;;;;;;6.80;6.20;;;11.80;88.00;;;;;;5030038;28;20180;-66
2022/04/03 11:00:16;;;;;;;6.40;6.00;;;11.70;85.60;;;;;;5032460;28;20171;-66
2022/04/03 11:02:44;;;;;;;6.43;5.83;;;11.40;88.20;;;;;;5032465;28;20175;-66
2022/04/03 11:05:22;;;;;;;6.67;6.17;;;11.40;89.80;;;;;;5032014;28;20967;-66
2022/04/03 11:07:49;;;;;;;5.97;5.60;;;11.40;91.20;;;;;;5031365;28;20202;-66
2022/04/03 11:10:35;;;;;;;6.70;6.20;;;11.60;91.50;;;;;;5031382;28;20603;-66
2022/04/03 11:13:00;;;;;;;6.20;5.80;;;11.90;88.80;;;;;;5032086;28;20234;-66
2022/04/03 11:15:26;;;;;;;6.20;5.80;;;11.60;87.50;;;;;;5031672;28;20573;-66
2022/04/03 11:17:53;;;;;;;6.17;5.67;;;11.80;88.50;;;;;;5032326;28;20179;-66
2022/04/03 11:20:30;;;;;;;6.03;5.63;;;12.30;88.80;;;;;;5030763;28;20191;-66
2022/04/03 11:22:57;;;;;;;5.90;5.60;;;12.70;86.60;;;;;;5029462;28;20171;-67
2022/04/03 11:25:23;;;;;;;5.90;5.30;;;12.90;89.80;;;;;;5030680;28;20613;-66
2022/04/03 11:27:50;;;;;;;6.67;6.27;;;12.90;91.00;;;;;;5032150;28;20175;-66
2022/04/03 11:30:18;;;;;;;8.83;8.03;;;13.10;89.20;;;;;;5031230;28;20683;-66
2022/04/03 11:32:46;;;;;;;6.07;5.73;;;12.90;84.70;;;;;;5032024;28;20244;-66
2022/04/03 11:35:12;;;;;;;6.30;5.93;;;12.60;87.80;;;;;;5031361;28;20574;-66
2022/04/03 11:37:43;;;;;;;6.20;5.40;;;12.70;89.40;;;;;;5031769;28;20183;-66
2022/04/03 11:40:10;;;;;;;5.90;5.40;;;12.90;87.50;;;;;;5031302;28;20176;-66
2022/04/03 11:42:36;;;;;;;6.50;5.30;;;12.70;88.40;;;;;;5031391;28;20271;-66
2022/04/03 11:45:06;;;;;;;6.00;5.60;;;12.70;86.20;;;;;;5031535;28;20262;-66
2022/04/03 11:47:32;;;;;;;6.07;5.57;;;12.80;88.10;;;;;;5032118;28;20175;-66
2022/04/03 11:50:11;;;;;;;6.30;6.00;;;12.90;90.00;;;;;;5031634;28;20547;-67
2022/04/03 11:52:38;;;;;;;5.80;5.30;;;12.80;89.70;;;;;;5031654;28;20171;-66
2022/04/03 11:55:09;;;;;;;5.80;5.40;;;13.10;90.00;;;;;;5031360;28;20645;-66
2022/04/03 11:57:35;;;;;;;5.40;5.00;;;13.60;88.60;;;;;;5031545;28;20275;-66
2022/04/03 12:00:01;;;;;;;5.37;5.00;;;14.30;90.60;;;;;;5031623;28;20263;-66
2022/04/03 12:02:27;;;;;;;5.50;5.13;;;14.60;90.80;;;;;;5031668;28;20230;-67
2022/04/03 12:04:56;;;;;;;5.20;5.00;;;14.40;83.70;;;;;;5031111;28;20175;-67
2022/04/03 12:07:22;;;;;;;4.83;4.53;;;14.40;87.60;;;;;;5031597;28;20167;-66
2022/04/03 12:09:48;;;;;;;9.30;8.47;;;14.70;90.60;;;;;;5031068;28;20279;-66
2022/04/03 12:12:13;;;;;;;6.37;5.77;;;15.00;89.40;;;;;;5031017;28;20163;-65
2022/04/03 12:14:44;;;;;;;5.33;5.00;;;15.40;86.00;;;;;;5030571;28;20188;-66
2022/04/03 12:17:12;;;;;;;5.73;4.97;;;15.00;84.00;;;;;;5031124;28;20172;-64
2022/04/03 12:19:38;;;;;;;5.30;4.87;;;15.00;84.20;;;;;;5030779;28;20687;-65
2022/04/03 12:22:06;;;;;;;5.10;4.80;;;15.00;89.30;;;;;;5030765;28;20175;-65
2022/04/03 12:24:33;;;;;;;5.53;5.03;;;15.20;90.60;;;;;;5030896;28;20205;-65
2022/04/03 12:27:12;;;;;;;5.17;4.70;;;15.80;84.60;;;;;;5031234;28;20199;-65
2022/04/03 12:29:39;;;;;;;5.50;5.10;;;15.30;82.60;;;;;;5029936;28;20187;-66
2022/04/03 12:32:12;;;;;;;5.90;5.07;;;14.80;86.90;;;;;;5030587;28;20179;-65
2022/04/03 12:34:43;;;;;;;5.83;5.43;;;14.80;89.40;;;;;;5030839;28;20180;-65
2022/04/03 12:37:10;;;;;;;5.60;5.20;;;14.70;86.10;;;;;;5031305;28;20207;-65
2022/04/03 12:39:46;;;;;;;5.60;5.20;;;14.70;88.70;;;;;;5030426;28;20172;-65
2022/04/03 12:42:23;;;;;;;5.67;5.30;;;14.50;83.30;;;;;;5030926;28;20214;-65